Time;durP1;ratioP1;P1;durP2;ratioP2;P2;SDS_P1;SDS_P2;PMS_P1;PMS_P2;Temp;Humidity;BMP_temperature;BMP_pressure;BME280_temperature;BME280_humidity;BME280_pressure;Samples;Min_cycle;Max_cycle;Signal;HPM_P1;HPM_P2
2023/11/22 00:00:28;;;;;;;10.45;5.45;;;6.40;99.90;;;;;;5047167;28;20037;-39
2023/11/22 00:02:54;;;;;;;10.43;5.60;;;6.40;99.90;;;;;;5046665;28;20028;-47
2023/11/22 00:05:19;;;;;;;9.75;5.28;;;6.40;99.90;;;;;;5047181;28;20033;-40
2023/11/22 00:07:45;;;;;;;16.27;6.20;;;6.40;99.90;;;;;;5046759;28;20025;-39
2023/11/22 00:10:11;;;;;;;12.70;5.55;;;6.40;99.90;;;;;;5045735;28;20045;-46
2023/11/22 00:12:38;;;;;;;11.98;4.70;;;6.40;99.90;;;;;;5046347;28;20045;-39
2023/11/22 00:15:08;;;;;;;14.45;5.45;;;6.40;99.90;;;;;;5046746;28;20033;-42
2023/11/22 00:17:34;;;;;;;9.10;5.10;;;6.40;99.90;;;;;;5046708;28;20025;-39
2023/11/22 00:20:03;;;;;;;13.60;6.28;;;6.30;99.90;;;;;;5046696;28;20091;-41
2023/11/22 00:22:32;;;;;;;11.88;5.90;;;6.40;99.90;;;;;;5046446;28;20049;-38
2023/11/22 00:24:58;;;;;;;9.02;4.95;;;6.40;99.90;;;;;;5046715;28;20468;-39
2023/11/22 00:27:24;;;;;;;17.23;6.22;;;6.40;99.90;;;;;;5046614;28;20033;-39
2023/11/22 00:29:49;;;;;;;12.15;5.43;;;6.40;99.90;;;;;;5046584;28;20079;-39
2023/11/22 00:32:15;;;;;;;16.67;6.13;;;6.40;99.90;;;;;;5046431;28;20033;-39
2023/11/22 00:34:40;;;;;;;9.73;5.38;;;6.40;99.90;;;;;;5046207;28;20033;-39
2023/11/22 00:37:06;;;;;;;11.20;6.22;;;6.40;99.90;;;;;;5046301;28;20068;-39
2023/11/22 00:39:32;;;;;;;12.13;5.97;;;6.40;99.90;;;;;;5044436;28;20107;-42
2023/11/22 00:41:57;;;;;;;13.68;5.60;;;6.40;99.90;;;;;;5046173;28;20052;-60
2023/11/22 00:44:23;;;;;;;13.95;5.50;;;6.40;99.90;;;;;;5046120;28;20108;-40
2023/11/22 00:46:49;;;;;;;9.43;5.30;;;6.40;99.90;;;;;;5044869;28;20025;-40
2023/11/22 00:49:15;;;;;;;12.43;5.95;;;6.40;99.90;;;;;;5046211;28;20018;-40
2023/11/22 00:51:41;;;;;;;11.13;5.35;;;6.50;99.90;;;;;;5046146;28;20024;-40
2023/11/22 00:54:07;;;;;;;12.90;5.95;;;6.50;99.90;;;;;;5035917;28;20036;-39
2023/11/22 00:56:33;;;;;;;12.20;5.60;;;6.50;99.90;;;;;;5037631;28;20441;-39
2023/11/22 00:58:59;;;;;;;18.00;5.30;;;6.40;99.90;;;;;;5046151;28;20026;-39
2023/11/22 01:01:25;;;;;;;8.55;5.88;;;6.40;99.90;;;;;;5045894;28;20187;-39
2023/11/22 01:03:51;;;;;;;14.88;6.13;;;6.40;99.90;;;;;;5045941;28;20600;-40
2023/11/22 01:06:18;;;;;;;12.27;6.20;;;6.40;99.90;;;;;;5045406;28;20025;-40
2023/11/22 01:08:43;;;;;;;10.98;5.10;;;6.40;99.90;;;;;;5045634;28;20026;-41
2023/11/22 01:11:09;;;;;;;12.45;5.97;;;6.50;99.90;;;;;;5044614;28;20105;-39
2023/11/22 01:13:40;;;;;;;12.57;5.18;;;6.50;99.90;;;;;;5045779;28;20523;-39
2023/11/22 01:16:10;;;;;;;13.50;5.93;;;6.50;99.90;;;;;;5045807;28;20045;-39
2023/11/22 01:18:36;;;;;;;12.70;5.22;;;6.50;99.90;;;;;;5043679;28;20061;-40
2023/11/22 01:21:03;;;;;;;15.93;5.90;;;6.50;99.90;;;;;;5045250;28;20021;-39
2023/11/22 01:23:32;;;;;;;13.37;5.63;;;6.50;99.90;;;;;;5044234;28;20151;-42
2023/11/22 01:25:59;;;;;;;10.60;5.20;;;6.40;99.90;;;;;;5044652;28;20021;-40
2023/11/22 01:28:26;;;;;;;9.82;5.07;;;6.40;99.90;;;;;;5042958;28;20048;-41
2023/11/22 01:30:53;;;;;;;10.70;5.55;;;6.40;99.90;;;;;;5045995;28;20056;-42
2023/11/22 01:33:18;;;;;;;16.08;5.60;;;6.40;99.90;;;;;;5045747;28;20081;-41
2023/11/22 01:35:44;;;;;;;9.75;5.65;;;6.40;99.90;;;;;;5045099;28;20022;-39
2023/11/22 01:38:10;;;;;;;11.10;6.00;;;6.30;99.90;;;;;;5045347;28;20029;-41
2023/11/22 01:40:47;;;;;;;12.52;6.22;;;6.30;99.90;;;;;;5045411;28;20021;-59
2023/11/22 01:43:21;;;;;;;10.73;5.45;;;6.30;99.90;;;;;;5045761;28;20030;-42
2023/11/22 01:45:46;;;;;;;11.35;5.72;;;6.30;99.90;;;;;;5045236;28;20032;-40
2023/11/22 01:48:12;;;;;;;12.85;5.22;;;6.30;99.90;;;;;;5045618;28;20026;-50
2023/11/22 01:50:43;;;;;;;10.15;4.60;;;6.20;99.90;;;;;;5045359;28;20081;-40
2023/11/22 01:53:11;;;;;;;7.55;4.93;;;6.30;99.90;;;;;;5029971;28;20030;-39
2023/11/22 01:55:37;;;;;;;9.65;5.75;;;6.20;99.90;;;;;;5031694;28;20018;-41
2023/11/22 01:58:03;;;;;;;11.90;5.78;;;6.20;99.90;;;;;;5049051;28;20041;-39
2023/11/22 02:00:36;;;;;;;10.65;5.90;;;6.20;99.90;;;;;;5048887;28;20029;-40
2023/11/22 02:03:02;;;;;;;10.25;5.30;;;6.20;99.90;;;;;;5048259;28;20103;-39
2023/11/22 02:05:28;;;;;;;11.07;5.90;;;6.20;99.90;;;;;;5047138;28;20025;-41
2023/11/22 02:07:54;;;;;;;10.90;5.50;;;6.10;99.90;;;;;;5047864;28;20282;-41
2023/11/22 02:10:20;;;;;;;12.55;5.90;;;6.10;99.90;;;;;;5049079;28;20376;-41
2023/11/22 02:12:46;;;;;;;12.75;5.35;;;6.00;99.90;;;;;;5031201;28;20052;-43
2023/11/22 02:15:11;;;;;;;13.07;6.03;;;6.00;99.90;;;;;;5048939;28;20498;-40
2023/11/22 02:17:37;;;;;;;8.95;5.25;;;6.00;99.90;;;;;;5049179;28;20021;-42
2023/11/22 02:20:08;;;;;;;12.23;5.38;;;5.90;99.90;;;;;;5048694;28;20056;-39
2023/11/22 02:22:34;;;;;;;7.63;4.70;;;5.90;99.90;;;;;;5049152;28;20081;-59
2023/11/22 02:24:59;;;;;;;14.27;6.63;;;5.90;99.90;;;;;;5048943;28;20021;-41
2023/11/22 02:27:25;;;;;;;15.43;5.05;;;5.90;99.90;;;;;;5048630;28;20026;-39
2023/11/22 02:29:51;;;;;;;10.70;5.15;;;5.90;99.90;;;;;;5048653;28;20077;-40
2023/11/22 02:32:18;;;;;;;11.55;5.90;;;5.80;99.90;;;;;;5048902;28;20021;-41
2023/11/22 02:34:44;;;;;;;11.23;5.00;;;5.80;99.90;;;;;;5048618;28;20025;-39
2023/11/22 02:37:09;;;;;;;10.65;5.95;;;5.80;99.90;;;;;;5048704;28;20113;-40
2023/11/22 02:39:55;;;;;;;16.35;6.25;;;5.80;99.90;;;;;;5047298;28;20032;-39
2023/11/22 02:42:21;;;;;;;14.85;6.03;;;5.80;99.90;;;;;;5048801;28;20036;-40
2023/11/22 02:44:47;;;;;;;11.20;5.72;;;5.80;99.90;;;;;;5048395;28;20017;-43
2023/11/22 02:47:12;;;;;;;12.40;5.35;;;5.70;99.90;;;;;;5048109;28;20383;-39
2023/11/22 02:49:39;;;;;;;8.77;5.30;;;5.70;99.90;;;;;;5048516;28;20024;-39
2023/11/22 02:52:05;;;;;;;12.18;5.82;;;5.60;99.90;;;;;;5047767;28;20037;-43
2023/11/22 02:54:31;;;;;;;16.83;6.43;;;5.60;99.90;;;;;;5048481;28;20014;-41
2023/11/22 02:56:57;;;;;;;11.25;5.50;;;5.60;99.90;;;;;;5048127;28;20029;-41
2023/11/22 02:59:22;;;;;;;10.15;6.93;;;5.50;99.90;;;;;;5048306;28;20495;-43
2023/11/22 03:01:50;;;;;;;12.88;6.13;;;5.50;99.90;;;;;;5047853;28;20029;-43
2023/11/22 03:04:15;;;;;;;12.23;6.33;;;5.50;99.90;;;;;;5047356;28;20022;-39
2023/11/22 03:06:41;;;;;;;17.85;5.60;;;5.50;99.90;;;;;;5047642;28;20427;-39
2023/11/22 03:09:08;;;;;;;12.68;6.00;;;5.40;99.90;;;;;;5047816;28;20060;-40
2023/11/22 03:11:33;;;;;;;14.25;6.68;;;5.40;99.90;;;;;;5047887;28;20041;-66
2023/11/22 03:13:59;;;;;;;12.55;6.18;;;5.40;99.90;;;;;;5048047;28;20041;-40
2023/11/22 03:16:25;;;;;;;14.30;6.50;;;5.40;99.90;;;;;;5047599;28;20412;-40
2023/11/22 03:18:50;;;;;;;12.75;6.55;;;5.40;99.90;;;;;;5045808;28;20021;-39
2023/11/22 03:21:17;;;;;;;17.60;6.22;;;5.40;99.90;;;;;;5047547;28;20053;-40
2023/11/22 03:23:42;;;;;;;12.30;6.32;;;5.40;99.90;;;;;;5047576;28;20025;-40
2023/11/22 03:26:09;;;;;;;13.32;6.13;;;5.40;99.90;;;;;;5047773;28;20471;-40
2023/11/22 03:28:35;;;;;;;13.68;6.28;;;5.40;99.90;;;;;;5047871;28;20021;-39
2023/11/22 03:31:02;;;;;;;12.45;5.40;;;5.40;99.90;;;;;;5047828;28;20069;-41
2023/11/22 03:33:28;;;;;;;11.18;5.47;;;5.40;99.90;;;;;;5047180;28;20091;-39
2023/11/22 03:35:54;;;;;;;14.18;7.28;;;5.50;99.90;;;;;;5047362;28;20061;-40
2023/11/22 03:38:20;;;;;;;14.75;6.82;;;5.50;99.90;;;;;;5047405;28;20056;-40
2023/11/22 03:40:47;;;;;;;17.67;6.47;;;5.50;99.90;;;;;;5047486;28;20037;-39
2023/11/22 03:43:13;;;;;;;18.25;7.60;;;5.50;99.90;;;;;;5047284;28;20034;-39
2023/11/22 03:45:38;;;;;;;12.07;6.32;;;5.50;99.90;;;;;;5047275;28;20024;-41
2023/11/22 03:48:04;;;;;;;14.15;5.97;;;5.50;99.90;;;;;;5046955;28;20029;-39
2023/11/22 03:50:30;;;;;;;10.18;5.70;;;5.50;99.90;;;;;;5047397;28;20025;-64
2023/11/22 03:52:55;;;;;;;11.02;6.50;;;5.50;99.90;;;;;;5046381;28;20044;-39
2023/11/22 03:55:21;;;;;;;16.73;6.13;;;5.50;99.90;;;;;;5046688;28;20173;-40
2023/11/22 03:57:47;;;;;;;17.10;6.45;;;5.50;99.90;;;;;;5047352;28;20030;-40
2023/11/22 04:00:13;;;;;;;12.25;6.35;;;5.50;99.90;;;;;;5047180;28;20037;-41
2023/11/22 04:02:39;;;;;;;12.40;6.35;;;5.50;99.90;;;;;;5045264;28;20033;-42
2023/11/22 04:05:07;;;;;;;13.48;6.38;;;5.50;99.90;;;;;;5076985;28;20056;-41
2023/11/22 04:07:33;;;;;;;15.75;6.35;;;5.50;99.90;;;;;;5045148;28;20368;-42
2023/11/22 04:09:59;;;;;;;12.07;5.97;;;5.50;99.90;;;;;;5047231;28;20026;-39
2023/11/22 04:12:24;;;;;;;18.45;6.85;;;5.50;99.90;;;;;;5045351;28;20048;-39
2023/11/22 04:14:51;;;;;;;14.13;6.28;;;5.50;99.90;;;;;;5046228;28;20026;-41
2023/11/22 04:17:18;;;;;;;12.68;5.95;;;5.50;99.90;;;;;;5046949;28;20041;-50
2023/11/22 04:19:44;;;;;;;11.25;5.97;;;5.50;99.90;;;;;;5046883;28;20033;-42
2023/11/22 04:22:10;;;;;;;11.82;6.45;;;5.50;99.90;;;;;;5046597;28;20029;-40
2023/11/22 04:24:36;;;;;;;12.85;6.50;;;5.40;99.90;;;;;;5046574;28;20386;-39
2023/11/22 04:27:02;;;;;;;12.98;6.90;;;5.50;99.90;;;;;;5046757;28;20018;-39
2023/11/22 04:29:28;;;;;;;14.80;7.47;;;5.40;99.90;;;;;;5046671;28;20029;-40
2023/11/22 04:31:53;;;;;;;14.32;6.15;;;5.50;99.90;;;;;;5045388;28;20037;-41
2023/11/22 04:34:20;;;;;;;14.70;7.03;;;5.50;99.90;;;;;;5046579;28;20041;-39
2023/11/22 04:36:46;;;;;;;16.88;6.70;;;5.50;99.90;;;;;;5046290;28;20097;-43
2023/11/22 04:39:13;;;;;;;15.85;6.78;;;5.50;99.90;;;;;;5045067;28;20033;-49
2023/11/22 04:41:38;;;;;;;15.40;7.00;;;5.50;99.90;;;;;;5046343;28;20025;-40
2023/11/22 04:44:04;;;;;;;14.40;6.65;;;5.50;99.90;;;;;;5046048;28;20517;-39
2023/11/22 04:46:30;;;;;;;12.80;5.95;;;5.50;99.90;;;;;;5045597;28;20376;-42
2023/11/22 04:48:57;;;;;;;12.10;6.10;;;5.50;99.90;;;;;;5046169;28;20025;-38
2023/11/22 04:51:24;;;;;;;12.10;5.85;;;5.50;99.90;;;;;;5046049;28;20013;-40
2023/11/22 04:53:51;;;;;;;13.85;6.50;;;5.50;99.90;;;;;;5044732;28;20021;-39
2023/11/22 04:56:16;;;;;;;14.57;6.17;;;5.50;99.90;;;;;;5046021;28;20018;-39
2023/11/22 04:58:42;;;;;;;12.27;6.00;;;5.50;99.90;;;;;;5046247;28;20087;-40
2023/11/22 05:01:09;;;;;;;14.20;7.05;;;5.50;99.90;;;;;;5045796;28;20026;-40
2023/11/22 05:03:35;;;;;;;21.88;7.07;;;5.50;99.90;;;;;;5044791;28;20025;-40
2023/11/22 05:06:00;;;;;;;11.95;6.38;;;5.50;99.90;;;;;;5046051;28;20268;-39
2023/11/22 05:08:27;;;;;;;11.20;6.28;;;5.50;99.90;;;;;;5045264;28;20426;-39
2023/11/22 05:10:52;;;;;;;14.07;6.43;;;5.50;99.90;;;;;;5046055;28;20021;-40
2023/11/22 05:13:18;;;;;;;13.20;6.57;;;5.50;99.90;;;;;;5043843;28;20114;-41
2023/11/22 05:15:44;;;;;;;18.42;7.30;;;5.50;99.90;;;;;;5045955;28;20040;-40
2023/11/22 05:18:09;;;;;;;17.17;7.15;;;5.40;99.90;;;;;;5045981;28;20025;-42
2023/11/22 05:20:35;;;;;;;17.13;7.60;;;5.40;99.90;;;;;;5045489;28;20052;-42
2023/11/22 05:23:01;;;;;;;13.90;7.28;;;5.30;99.90;;;;;;5044196;28;20021;-39
2023/11/22 05:25:27;;;;;;;13.85;6.43;;;5.50;99.90;;;;;;5045567;28;20021;-40
2023/11/22 05:27:52;;;;;;;17.67;7.05;;;5.50;99.90;;;;;;5045333;28;20048;-40
2023/11/22 05:30:18;;;;;;;16.10;7.07;;;5.40;99.90;;;;;;5045554;28;20080;-39
2023/11/22 05:32:44;;;;;;;13.63;6.35;;;5.40;99.90;;;;;;5045581;28;20026;-39
2023/11/22 05:35:09;;;;;;;14.18;6.80;;;5.40;99.90;;;;;;5045667;28;20053;-40
2023/11/22 05:37:36;;;;;;;12.77;6.13;;;5.40;99.90;;;;;;5045251;28;20125;-40
2023/11/22 05:40:04;;;;;;;11.77;6.68;;;5.40;99.90;;;;;;5045556;28;20057;-50
2023/11/22 05:42:29;;;;;;;17.53;6.87;;;5.40;99.90;;;;;;5045612;28;20021;-39
2023/11/22 05:44:55;;;;;;;15.50;6.78;;;5.50;99.90;;;;;;5045176;28;20018;-39
2023/11/22 05:47:20;;;;;;;16.98;6.80;;;5.40;99.90;;;;;;5044914;28;20030;-39
2023/11/22 05:49:46;;;;;;;13.45;6.15;;;5.40;99.90;;;;;;5045571;28;20117;-43
2023/11/22 05:52:12;;;;;;;11.35;5.78;;;5.40;99.90;;;;;;5045331;28;20021;-40
2023/11/22 05:54:37;;;;;;;12.85;6.80;;;5.40;99.90;;;;;;5044985;28;20510;-40
2023/11/22 05:57:04;;;;;;;13.75;6.70;;;5.40;99.90;;;;;;5045531;28;20033;-39
2023/11/22 05:59:30;;;;;;;11.35;5.53;;;5.40;99.90;;;;;;5045565;28;20014;-40
2023/11/22 06:01:55;;;;;;;14.88;6.18;;;5.50;99.90;;;;;;5045092;28;20024;-40
2023/11/22 06:04:21;;;;;;;12.93;5.78;;;5.50;99.90;;;;;;5044896;28;20399;-56
2023/11/22 06:06:46;;;;;;;14.95;5.18;;;5.50;99.90;;;;;;5044905;28;20021;-39
2023/11/22 06:09:14;;;;;;;15.48;6.82;;;5.50;99.90;;;;;;5045267;28;20029;-40
2023/11/22 06:11:40;;;;;;;14.95;6.78;;;5.60;99.90;;;;;;5042513;28;20033;-40
2023/11/22 06:14:05;;;;;;;12.75;5.85;;;5.60;99.90;;;;;;5044861;28;20119;-39
2023/11/22 06:16:31;;;;;;;15.13;5.38;;;5.60;99.90;;;;;;5044491;28;20040;-40
2023/11/22 06:18:57;;;;;;;13.38;5.55;;;5.60;99.90;;;;;;5044326;28;20041;-43
2023/11/22 06:21:26;;;;;;;12.70;5.90;;;5.50;99.90;;;;;;5043953;28;20259;-43
2023/11/22 06:23:52;;;;;;;17.67;6.65;;;5.50;99.90;;;;;;5044496;28;20022;-40
2023/11/22 06:26:19;;;;;;;12.63;6.22;;;5.40;99.90;;;;;;5044664;28;20119;-42
2023/11/22 06:28:48;;;;;;;16.77;6.88;;;5.50;99.90;;;;;;5045069;28;20428;-39
2023/11/22 06:31:14;;;;;;;14.85;5.80;;;5.40;99.90;;;;;;5043925;28;20033;-40
2023/11/22 06:33:39;;;;;;;20.25;6.93;;;5.50;99.90;;;;;;5028381;28;20077;-39
2023/11/22 06:36:05;;;;;;;14.15;6.45;;;5.50;99.90;;;;;;5025422;28;20050;-41
2023/11/22 06:38:31;;;;;;;17.00;6.70;;;5.50;99.90;;;;;;5040547;28;20037;-43
2023/11/22 06:40:56;;;;;;;16.67;6.85;;;5.50;99.90;;;;;;5048508;28;20025;-41
2023/11/22 06:43:22;;;;;;;14.45;5.25;;;5.40;99.90;;;;;;5048489;28;20471;-42
2023/11/22 06:45:48;;;;;;;12.77;6.50;;;5.40;99.90;;;;;;5048086;28;20096;-40
2023/11/22 06:48:14;;;;;;;14.43;6.20;;;5.30;99.90;;;;;;5047978;28;20052;-40
2023/11/22 06:50:40;;;;;;;15.43;6.18;;;5.30;99.90;;;;;;5047803;28;20022;-43
2023/11/22 06:53:06;;;;;;;13.55;6.78;;;5.30;99.90;;;;;;5049368;28;20043;-41
2023/11/22 06:55:33;;;;;;;11.82;5.45;;;5.30;99.90;;;;;;5048330;28;20464;-40
2023/11/22 06:57:59;;;;;;;13.30;6.43;;;5.30;99.90;;;;;;5048051;28;20034;-40
2023/11/22 07:00:26;;;;;;;22.05;7.30;;;5.40;99.90;;;;;;5048428;28;20025;-39
2023/11/22 07:02:52;;;;;;;15.00;6.47;;;5.40;99.90;;;;;;5048128;28;20044;-41
2023/11/22 07:05:18;;;;;;;15.50;6.82;;;5.30;99.90;;;;;;5047866;28;20268;-43
2023/11/22 07:07:44;;;;;;;16.77;6.65;;;5.30;99.90;;;;;;5046685;28;20025;-41
2023/11/22 07:10:11;;;;;;;14.73;6.60;;;5.40;99.90;;;;;;5047305;28;20022;-42
2023/11/22 07:12:37;;;;;;;11.43;6.30;;;5.30;99.90;;;;;;5046262;28;20041;-41
2023/11/22 07:15:05;;;;;;;13.07;5.82;;;5.30;99.90;;;;;;5047509;28;20029;-42
2023/11/22 07:17:33;;;;;;;13.95;6.07;;;5.30;99.90;;;;;;5046397;28;20025;-40
2023/11/22 07:20:00;;;;;;;15.32;6.35;;;5.30;99.90;;;;;;5048118;28;20049;-40
2023/11/22 07:22:26;;;;;;;10.52;5.18;;;5.30;99.90;;;;;;5046151;28;20029;-42
2023/11/22 07:24:54;;;;;;;13.85;4.85;;;5.30;99.90;;;;;;5047718;28;20099;-40
2023/11/22 07:27:20;;;;;;;15.95;6.80;;;5.40;99.90;;;;;;5047829;28;20013;-40
2023/11/22 07:29:46;;;;;;;12.57;6.57;;;5.30;99.90;;;;;;5047375;28;20085;-42
2023/11/22 07:32:12;;;;;;;17.88;7.50;;;5.30;99.90;;;;;;5047052;28;20041;-40
2023/11/22 07:34:40;;;;;;;15.45;7.55;;;5.30;99.90;;;;;;5046435;28;20013;-41
2023/11/22 07:37:07;;;;;;;12.93;6.47;;;5.20;99.90;;;;;;5047450;28;20026;-52
2023/11/22 07:39:35;;;;;;;14.77;6.80;;;5.30;99.90;;;;;;5047598;28;20013;-41
2023/11/22 07:42:01;;;;;;;14.70;6.85;;;5.20;99.90;;;;;;5047129;28;20021;-45
2023/11/22 07:44:27;;;;;;;15.43;6.75;;;5.20;99.90;;;;;;5046188;28;20027;-40
2023/11/22 07:46:53;;;;;;;18.08;7.63;;;5.20;99.90;;;;;;5047189;28;20033;-43
2023/11/22 07:49:22;;;;;;;15.75;7.00;;;5.20;99.90;;;;;;5046900;28;20024;-42
2023/11/22 07:51:51;;;;;;;15.27;6.13;;;5.20;99.90;;;;;;5045641;28;20028;-41
2023/11/22 07:54:19;;;;;;;19.70;7.10;;;5.20;99.90;;;;;;5045726;28;20029;-41
2023/11/22 07:56:44;;;;;;;15.80;6.50;;;5.30;99.90;;;;;;5047394;28;20025;-40
2023/11/22 07:59:11;;;;;;;19.00;8.27;;;5.20;99.90;;;;;;5046260;28;20042;-40
2023/11/22 08:01:36;;;;;;;15.75;6.90;;;5.30;99.90;;;;;;5046481;28;20021;-41
2023/11/22 08:04:05;;;;;;;15.75;7.32;;;5.30;99.90;;;;;;5046477;28;20372;-40
2023/11/22 08:06:34;;;;;;;14.70;7.43;;;5.40;99.90;;;;;;5046822;28;20018;-40
2023/11/22 08:09:04;;;;;;;20.55;7.78;;;5.40;99.90;;;;;;5046825;28;20260;-42
2023/11/22 08:11:31;;;;;;;14.23;7.45;;;5.40;99.90;;;;;;5033144;28;20032;-40
2023/11/22 08:13:58;;;;;;;15.95;7.47;;;5.50;99.90;;;;;;5046780;28;20068;-40
2023/11/22 08:16:27;;;;;;;17.33;7.13;;;5.50;99.90;;;;;;5046541;28;20021;-41
2023/11/22 08:18:53;;;;;;;16.85;7.00;;;5.60;99.90;;;;;;5046936;28;20029;-41
2023/11/22 08:21:19;;;;;;;15.77;7.07;;;5.60;99.90;;;;;;5046966;28;20029;-46
2023/11/22 08:23:49;;;;;;;21.83;7.57;;;5.50;99.90;;;;;;5045070;28;20065;-43
2023/11/22 08:26:15;;;;;;;15.95;7.13;;;5.60;99.90;;;;;;5046485;28;20085;-41
2023/11/22 08:28:41;;;;;;;15.23;7.75;;;5.60;99.90;;;;;;5046815;28;20061;-54
2023/11/22 08:31:09;;;;;;;16.90;7.13;;;5.70;99.90;;;;;;5046725;28;20025;-40
2023/11/22 08:33:37;;;;;;;16.55;8.23;;;5.70;99.90;;;;;;5044868;28;20030;-41
2023/11/22 08:36:05;;;;;;;13.00;6.65;;;5.80;99.90;;;;;;5046247;28;20060;-40
2023/11/22 08:38:33;;;;;;;13.10;5.97;;;5.90;99.90;;;;;;5046586;28;20017;-40
2023/11/22 08:41:03;;;;;;;18.65;8.45;;;6.00;99.90;;;;;;5045326;28;20089;-40
2023/11/22 08:43:28;;;;;;;23.20;8.18;;;6.00;99.90;;;;;;5046404;28;20026;-40
2023/11/22 08:45:54;;;;;;;19.27;8.45;;;6.00;99.90;;;;;;5046238;28;20404;-41
2023/11/22 08:48:20;;;;;;;17.70;7.80;;;6.10;99.90;;;;;;5045972;28;20048;-44
2023/11/22 08:50:47;;;;;;;18.73;8.20;;;6.20;99.90;;;;;;5044682;28;20064;-43
2023/11/22 08:53:13;;;;;;;19.13;8.43;;;6.20;99.90;;;;;;5045014;28;20038;-43
2023/11/22 08:55:39;;;;;;;19.02;8.10;;;6.20;99.90;;;;;;5045962;28;20077;-40
2023/11/22 08:58:05;;;;;;;25.08;8.50;;;6.30;99.90;;;;;;5045862;28;20032;-41
2023/11/22 09:00:32;;;;;;;17.40;7.85;;;6.30;99.90;;;;;;5045407;28;20024;-40
2023/11/22 09:02:57;;;;;;;16.55;7.38;;;6.40;99.90;;;;;;5045801;28;20060;-48
2023/11/22 09:05:23;;;;;;;16.75;7.72;;;6.40;99.90;;;;;;5045517;28;20025;-40
2023/11/22 09:07:50;;;;;;;18.98;8.13;;;6.50;99.90;;;;;;5045894;28;20028;-41
2023/11/22 09:10:18;;;;;;;18.98;9.00;;;6.40;99.90;;;;;;5046066;28;20387;-42
2023/11/22 09:12:44;;;;;;;18.55;8.30;;;6.40;99.90;;;;;;5045624;28;20046;-45
2023/11/22 09:15:12;;;;;;;20.85;7.57;;;6.40;99.90;;;;;;5045368;28;20057;-40
2023/11/22 09:17:42;;;;;;;19.60;7.97;;;6.40;99.90;;;;;;5045999;28;20028;-63
2023/11/22 09:20:11;;;;;;;16.45;7.55;;;6.40;99.90;;;;;;5045796;28;20029;-40
2023/11/22 09:22:45;;;;;;;18.10;8.23;;;6.50;99.90;;;;;;5037688;28;20093;-40
2023/11/22 09:25:11;;;;;;;16.52;7.55;;;6.60;99.90;;;;;;5046043;28;20096;-41
2023/11/22 09:27:37;;;;;;;19.08;8.20;;;6.60;99.90;;;;;;5045833;28;20030;-40
2023/11/22 09:30:04;;;;;;;18.17;8.00;;;6.70;99.90;;;;;;5045523;28;20029;-38
2023/11/22 09:32:30;;;;;;;26.08;9.07;;;6.70;99.90;;;;;;5045642;28;20089;-41
2023/11/22 09:34:58;;;;;;;16.73;7.18;;;6.80;99.90;;;;;;5043544;28;20022;-41
2023/11/22 09:37:24;;;;;;;16.00;7.38;;;6.80;99.90;;;;;;5043029;28;20029;-41
2023/11/22 09:39:51;;;;;;;17.30;8.18;;;6.90;99.90;;;;;;5045392;28;20096;-39
2023/11/22 09:42:16;;;;;;;20.10;7.90;;;7.00;99.90;;;;;;5045249;28;20036;-42
2023/11/22 09:44:43;;;;;;;14.82;7.70;;;7.10;99.90;;;;;;5045022;28;20069;-46
2023/11/22 09:47:09;;;;;;;17.70;8.77;;;7.00;99.90;;;;;;5045531;28;20021;-42
2023/11/22 09:49:40;;;;;;;15.77;7.22;;;7.00;99.90;;;;;;5045618;28;20021;-41
2023/11/22 09:52:11;;;;;;;20.60;8.23;;;7.10;99.90;;;;;;5044948;28;20029;-42
2023/11/22 09:54:40;;;;;;;15.00;7.15;;;7.20;99.90;;;;;;5045476;28;20036;-40
2023/11/22 09:57:10;;;;;;;16.48;7.55;;;7.20;99.90;;;;;;5044066;28;20454;-42
2023/11/22 09:59:38;;;;;;;16.40;7.28;;;7.20;99.90;;;;;;5045255;28;20036;-42
2023/11/22 10:02:06;;;;;;;17.48;8.75;;;7.20;99.90;;;;;;5045033;28;20439;-42
2023/11/22 10:04:32;;;;;;;14.95;6.90;;;7.30;99.90;;;;;;5044338;28;20014;-42
2023/11/22 10:06:58;;;;;;;12.60;7.15;;;7.30;99.90;;;;;;5044690;28;20022;-42
2023/11/22 10:09:25;;;;;;;15.57;7.63;;;7.30;99.90;;;;;;5042895;28;20026;-40
2023/11/22 10:11:50;;;;;;;15.20;7.55;;;7.30;99.90;;;;;;5043925;28;20049;-41
2023/11/22 10:14:24;;;;;;;16.85;8.05;;;7.30;99.90;;;;;;5046838;28;20046;-41
2023/11/22 10:17:01;;;;;;;17.17;7.82;;;7.30;99.90;;;;;;5047779;28;20040;-40
2023/11/22 10:19:28;;;;;;;19.50;7.65;;;7.30;99.90;;;;;;5042093;28;20033;-41
2023/11/22 10:22:05;;;;;;;16.90;7.47;;;7.40;99.90;;;;;;5046587;28;20040;-42
2023/11/22 10:24:34;;;;;;;15.80;7.50;;;7.40;99.90;;;;;;5048296;28;20030;-42
2023/11/22 10:27:02;;;;;;;18.67;7.70;;;7.50;99.90;;;;;;5047654;28;20388;-41
2023/11/22 10:29:29;;;;;;;15.32;7.85;;;7.50;99.90;;;;;;5036910;28;20025;-41
2023/11/22 10:31:55;;;;;;;16.55;7.88;;;7.60;99.90;;;;;;5047886;28;20172;-39
2023/11/22 10:34:22;;;;;;;17.25;8.48;;;7.60;99.90;;;;;;5044541;28;20022;-42
2023/11/22 10:36:49;;;;;;;16.63;7.38;;;7.70;99.90;;;;;;5045724;28;20396;-46
2023/11/22 10:39:22;;;;;;;16.90;8.95;;;7.70;99.90;;;;;;5048717;28;20090;-48
2023/11/22 10:41:50;;;;;;;18.33;8.27;;;7.70;99.90;;;;;;5046299;28;20052;-45
2023/11/22 10:44:20;;;;;;;23.35;9.02;;;7.80;99.90;;;;;;5047366;28;20021;-41
2023/11/22 10:46:46;;;;;;;18.67;9.18;;;7.90;99.90;;;;;;5047878;28;20021;-41
2023/11/22 10:49:12;;;;;;;21.02;7.82;;;7.80;99.90;;;;;;5047308;28;20017;-45
2023/11/22 10:51:41;;;;;;;20.20;8.70;;;7.70;99.90;;;;;;5047391;28;20022;-41
2023/11/22 10:54:09;;;;;;;14.20;7.18;;;7.80;99.90;;;;;;5046609;28;20484;-44
2023/11/22 10:56:51;;;;;;;17.42;8.02;;;7.80;99.90;;;;;;5043016;28;20017;-44
2023/11/22 10:59:22;;;;;;;17.42;7.55;;;7.70;99.90;;;;;;5048162;28;20036;-41
2023/11/22 11:01:49;;;;;;;16.10;7.93;;;7.70;99.90;;;;;;5047010;28;20108;-42
2023/11/22 11:04:40;;;;;;;20.15;9.27;;;7.80;99.90;;;;;;5047708;28;20025;-40
2023/11/22 11:07:10;;;;;;;17.02;8.07;;;8.00;99.90;;;;;;5046882;28;20028;-41
2023/11/22 11:09:36;;;;;;;16.50;8.35;;;8.00;99.90;;;;;;5048134;28;20056;-41
2023/11/22 11:12:02;;;;;;;17.80;8.85;;;8.10;99.90;;;;;;5048189;28;20081;-41
2023/11/22 11:14:28;;;;;;;19.55;8.82;;;8.20;99.90;;;;;;5047700;28;20054;-41
2023/11/22 11:16:58;;;;;;;21.92;9.20;;;8.30;99.90;;;;;;5047851;28;20029;-42
2023/11/22 11:19:25;;;;;;;17.20;8.05;;;8.40;99.90;;;;;;5046255;28;20079;-41
2023/11/22 11:21:51;;;;;;;15.05;7.25;;;8.30;99.90;;;;;;5047664;28;20064;-38
2023/11/22 11:24:18;;;;;;;15.68;8.13;;;8.30;99.90;;;;;;5046896;28;20079;-41
2023/11/22 11:26:54;;;;;;;18.33;7.63;;;8.20;99.90;;;;;;5047977;28;20014;-42
2023/11/22 11:29:49;;;;;;;18.92;8.57;;;8.20;99.90;;;;;;5047759;28;20028;-46
2023/11/22 11:32:34;;;;;;;17.08;8.73;;;8.20;99.90;;;;;;5047109;28;20032;-40
2023/11/22 11:35:03;;;;;;;16.90;7.88;;;8.10;99.90;;;;;;5046624;28;20029;-42
2023/11/22 11:37:32;;;;;;;16.13;8.23;;;8.10;99.90;;;;;;5047591;28;20017;-41
2023/11/22 11:39:58;;;;;;;15.32;8.60;;;8.10;99.90;;;;;;5047120;28;20033;-40
2023/11/22 11:42:24;;;;;;;18.02;8.98;;;8.10;99.90;;;;;;5047514;28;20032;-41
2023/11/22 11:44:59;;;;;;;21.80;9.55;;;8.10;99.90;;;;;;5047518;28;20468;-42
2023/11/22 11:47:24;;;;;;;20.48;9.02;;;8.10;99.90;;;;;;5047464;28;20026;-43
2023/11/22 11:49:50;;;;;;;17.17;9.30;;;7.90;99.90;;;;;;5046969;28;20025;-41
2023/11/22 11:52:16;;;;;;;23.45;9.35;;;7.90;99.90;;;;;;5047269;28;20402;-60
2023/11/22 11:54:41;;;;;;;27.83;10.02;;;8.00;99.90;;;;;;5047007;28;20056;-42
2023/11/22 11:57:08;;;;;;;20.67;9.13;;;7.90;99.90;;;;;;5047316;28;20021;-43
2023/11/22 11:59:34;;;;;;;15.73;8.95;;;8.00;99.90;;;;;;5046637;28;20025;-41
2023/11/22 12:02:00;;;;;;;17.35;9.02;;;8.00;99.90;;;;;;5046034;28;20430;-44
2023/11/22 12:04:26;;;;;;;18.83;9.55;;;7.90;99.90;;;;;;5044377;28;20036;-42
2023/11/22 12:06:52;;;;;;;21.70;9.70;;;7.90;99.90;;;;;;5045351;28;20032;-41
2023/11/22 12:09:25;;;;;;;18.42;9.55;;;7.80;99.90;;;;;;5045983;28;20025;-40
2023/11/22 12:11:53;;;;;;;18.00;8.98;;;7.80;99.90;;;;;;5046418;28;20097;-43
2023/11/22 12:14:20;;;;;;;16.60;9.20;;;7.70;99.90;;;;;;5046532;28;20384;-56
2023/11/22 12:16:48;;;;;;;26.58;9.85;;;7.70;99.90;;;;;;5047020;28;20029;-41
2023/11/22 12:19:28;;;;;;;18.55;9.23;;;7.90;99.90;;;;;;5046391;28;20033;-41
2023/11/22 12:21:54;;;;;;;23.58;9.68;;;7.90;99.90;;;;;;5025694;28;20045;-41
2023/11/22 12:24:20;;;;;;;16.77;8.88;;;8.00;99.90;;;;;;5026938;28;20069;-45
2023/11/22 12:26:49;;;;;;;21.80;9.48;;;8.20;99.90;;;;;;5043606;28;20088;-43
2023/11/22 12:29:16;;;;;;;17.77;9.00;;;8.20;99.90;;;;;;5029143;28;20083;-43
2023/11/22 12:31:47;;;;;;;19.38;9.80;;;8.30;99.90;;;;;;5046612;28;20021;-43
2023/11/22 12:34:19;;;;;;;17.23;9.13;;;8.50;99.90;;;;;;5046069;28;20040;-40
2023/11/22 12:36:48;;;;;;;17.55;9.48;;;8.70;99.90;;;;;;5045995;28;20053;-40
2023/11/22 12:39:17;;;;;;;18.50;8.55;;;8.70;99.90;;;;;;5045782;28;20029;-48
2023/11/22 12:41:47;;;;;;;17.73;8.77;;;8.80;99.90;;;;;;5035613;28;20040;-41
2023/11/22 12:44:13;;;;;;;23.25;10.57;;;8.90;99.90;;;;;;5042753;28;20033;-43
2023/11/22 12:47:10;;;;;;;15.85;7.63;;;8.90;99.90;;;;;;5046278;28;20036;-47